33V

Walden-Jackson County Airport

Walden, Colorado, USA
METAR K33V 181335Z AUTO 12003KT 3SM OVC003 M05/M07 A2979 RMK AO1
Observed Flight Rules
Jan-18 @ 13:35 UTC (30 minutes ago) Instrument Flight Rules
Wind Visibility Clouds
120° at 3 knots 3 miles
  • Overcast at 300' AGL
Temperatures Readings
Current -5°C / 23°F
Dewpoint -7°C / 19°F
Humidity 86%
Altimeter 29.79" Hg
Pressure 1008.82 hPa
Elevation 2484
METAR K33V 181335Z AUTO 12003KT 3SM OVC003 M05/M07 A2979 RMK AO1
Observed Flight Rules
Jan-18 @ 13:35 UTC
(30 minutes ago)
LIFR
Wind Visibility
120° at 3 knots 3 miles
Clouds
  • Overcast at 300' AGL
Temperature Dewpoint
-5°C / 23°F -7°C / 19°F
Humidity Altimeter Pressure
86% 29.79" Hg 1008.82 hPa